Time;durP1;ratioP1;P1;durP2;ratioP2;P2;SDS_P1;SDS_P2;PMS_P1;PMS_P2;Temp;Humidity;BMP_temperature;BMP_pressure;BME280_temperature;BME280_humidity;BME280_pressure;Samples;Min_cycle;Max_cycle;Signal;HPM_P1;HPM_P2
2022/07/08 00:01:29;;;;;;;10.60;2.55;;;14.80;75.40;;;;;;5068406;28;20089;-44
2022/07/08 00:03:57;;;;;;;13.02;2.78;;;14.70;75.90;;;;;;5069389;28;20032;-43
2022/07/08 00:06:22;;;;;;;8.07;2.47;;;14.70;76.40;;;;;;5050845;28;20353;-44
2022/07/08 00:08:48;;;;;;;12.07;2.70;;;14.70;76.60;;;;;;5068172;28;20032;-44
2022/07/08 00:11:13;;;;;;;13.88;2.97;;;14.70;76.80;;;;;;5067614;28;20082;-45
2022/07/08 00:13:39;;;;;;;11.27;2.78;;;14.60;76.80;;;;;;5068089;28;20028;-46
2022/07/08 00:16:05;;;;;;;8.60;2.25;;;14.60;76.70;;;;;;5068545;28;20105;-45
2022/07/08 00:18:31;;;;;;;10.60;2.65;;;14.60;77.00;;;;;;5068811;28;20541;-45
2022/07/08 00:20:56;;;;;;;9.60;2.55;;;14.40;77.50;;;;;;5068525;28;20039;-43
2022/07/08 00:23:22;;;;;;;9.05;2.72;;;14.40;77.70;;;;;;5068033;28;20040;-45
2022/07/08 00:25:47;;;;;;;12.18;2.63;;;14.40;78.10;;;;;;5068245;28;20064;-45
2022/07/08 00:28:13;;;;;;;7.75;2.65;;;14.30;78.30;;;;;;5068286;28;20082;-47
2022/07/08 00:30:39;;;;;;;13.60;2.20;;;14.30;78.40;;;;;;5050121;28;20494;-44
2022/07/08 00:33:04;;;;;;;6.32;1.55;;;14.20;78.50;;;;;;5050928;28;20420;-43
2022/07/08 00:35:30;;;;;;;8.40;1.92;;;14.30;78.50;;;;;;5068187;28;20517;-44
2022/07/08 00:37:56;;;;;;;7.70;2.65;;;14.20;78.50;;;;;;5051027;28;20119;-44
2022/07/08 00:40:22;;;;;;;10.77;2.08;;;14.20;78.90;;;;;;5068383;28;20077;-44
2022/07/08 00:42:48;;;;;;;8.77;2.47;;;14.30;79.10;;;;;;5067622;28;20500;-44
2022/07/08 00:45:15;;;;;;;8.95;2.38;;;14.30;79.30;;;;;;5068228;28;20032;-44
2022/07/08 00:47:41;;;;;;;9.98;2.72;;;14.40;79.40;;;;;;5066807;28;20093;-44
2022/07/08 00:50:09;;;;;;;10.23;2.38;;;14.40;79.90;;;;;;5067514;28;20036;-43
2022/07/08 00:52:37;;;;;;;11.98;2.28;;;14.40;80.00;;;;;;5068711;28;20337;-45
2022/07/08 00:55:03;;;;;;;10.73;2.25;;;14.40;80.20;;;;;;5050923;28;20099;-44
2022/07/08 00:57:28;;;;;;;16.70;2.58;;;14.40;80.70;;;;;;5068647;28;20767;-44
2022/07/08 00:59:57;;;;;;;13.68;2.85;;;14.40;81.00;;;;;;5068684;28;20025;-44
2022/07/08 01:02:23;;;;;;;14.18;3.00;;;14.40;80.70;;;;;;5068523;28;20031;-44
2022/07/08 01:04:50;;;;;;;13.88;3.20;;;14.40;80.70;;;;;;5055955;28;20036;-43
2022/07/08 01:07:16;;;;;;;8.60;2.00;;;14.40;80.60;;;;;;5068997;28;20115;-43
2022/07/08 01:09:41;;;;;;;10.63;2.13;;;14.40;80.60;;;;;;5067560;28;20161;-43
2022/07/08 01:12:08;;;;;;;12.20;2.58;;;14.40;80.60;;;;;;5067483;28;20510;-44
2022/07/08 01:14:33;;;;;;;11.85;3.00;;;14.40;80.50;;;;;;5068159;28;20175;-44
2022/07/08 01:16:59;;;;;;;9.85;2.13;;;14.40;80.50;;;;;;5068503;28;20155;-45
2022/07/08 01:19:24;;;;;;;14.50;2.70;;;14.40;80.50;;;;;;5050590;28;20621;-44
2022/07/08 01:21:50;;;;;;;8.23;2.30;;;14.40;80.40;;;;;;5070239;28;20035;-45
2022/07/08 01:24:18;;;;;;;7.03;2.75;;;14.40;80.50;;;;;;5037555;28;20039;-44
2022/07/08 01:26:45;;;;;;;13.65;2.70;;;14.40;80.50;;;;;;5053995;28;20105;-43
2022/07/08 01:29:11;;;;;;;15.65;3.33;;;14.40;80.40;;;;;;5070919;28;20469;-45
2022/07/08 01:31:40;;;;;;;7.55;1.95;;;14.40;80.20;;;;;;5071535;28;20115;-44
2022/07/08 01:34:06;;;;;;;11.80;2.30;;;14.40;80.20;;;;;;5071990;28;20634;-44
2022/07/08 01:36:31;;;;;;;8.10;1.90;;;14.40;80.10;;;;;;5054004;28;20048;-44
2022/07/08 01:38:57;;;;;;;11.65;2.08;;;14.40;79.90;;;;;;5071347;28;20028;-43
2022/07/08 01:41:25;;;;;;;9.63;1.98;;;14.30;79.30;;;;;;5053493;28;20066;-43
2022/07/08 01:43:51;;;;;;;9.45;2.50;;;14.30;78.90;;;;;;5071218;28;20032;-46
2022/07/08 01:46:16;;;;;;;10.65;1.90;;;14.30;78.60;;;;;;5053547;28;20119;-43
2022/07/08 01:48:42;;;;;;;6.60;2.17;;;14.30;78.30;;;;;;5068685;28;20033;-45
2022/07/08 01:51:08;;;;;;;5.00;1.60;;;14.20;78.50;;;;;;5068072;28;20024;-44
2022/07/08 01:53:34;;;;;;;10.73;2.35;;;14.20;78.60;;;;;;5070601;28;20374;-44
2022/07/08 01:55:59;;;;;;;13.05;2.80;;;14.10;78.80;;;;;;5071408;28;20025;-45
2022/07/08 01:58:25;;;;;;;8.73;1.98;;;14.00;78.90;;;;;;5071232;28;20024;-44
2022/07/08 02:00:51;;;;;;;10.02;2.47;;;13.90;79.10;;;;;;5071062;28;20429;-46
2022/07/08 02:03:17;;;;;;;7.38;1.90;;;13.90;79.40;;;;;;5071498;28;20340;-44
2022/07/08 02:05:43;;;;;;;14.95;2.92;;;13.80;79.60;;;;;;5070786;28;20089;-44
2022/07/08 02:08:10;;;;;;;9.13;2.50;;;13.80;79.90;;;;;;5053889;28;20105;-44
2022/07/08 02:13:20;;;;;;;10.10;2.30;;;13.80;80.50;;;;;;5064419;28;20089;-43
2022/07/08 02:15:47;;;;;;;8.75;2.47;;;13.80;80.80;;;;;;5070479;28;20432;-46
2022/07/08 02:18:13;;;;;;;10.27;2.88;;;13.80;81.10;;;;;;5071174;28;20024;-44
2022/07/08 02:20:38;;;;;;;12.48;2.45;;;13.80;81.20;;;;;;5053155;28;20459;-44
2022/07/08 02:23:04;;;;;;;11.82;1.88;;;13.80;81.30;;;;;;5069712;28;20326;-46
2022/07/08 02:25:30;;;;;;;9.30;2.17;;;13.80;81.10;;;;;;5052562;28;20391;-43
2022/07/08 02:27:55;;;;;;;8.98;2.03;;;13.80;80.90;;;;;;5070811;28;20496;-43
2022/07/08 02:30:21;;;;;;;7.82;1.98;;;13.80;80.60;;;;;;5070615;28;20028;-43
2022/07/08 02:32:46;;;;;;;7.20;1.85;;;13.80;80.50;;;;;;5069476;28;20037;-43
2022/07/08 02:35:12;;;;;;;9.70;2.30;;;13.80;80.40;;;;;;5070390;28;20041;-44
2022/07/08 02:37:38;;;;;;;9.85;2.40;;;13.80;80.50;;;;;;5070662;28;20122;-43
2022/07/08 02:40:04;;;;;;;9.73;2.20;;;13.80;80.40;;;;;;5070397;28;20335;-44
2022/07/08 02:42:29;;;;;;;10.52;2.13;;;13.80;80.70;;;;;;5069821;28;20044;-44
2022/07/08 02:44:55;;;;;;;8.63;1.67;;;13.90;80.90;;;;;;5052329;28;20111;-44
2022/07/08 02:47:21;;;;;;;8.27;1.98;;;13.80;81.00;;;;;;5069846;28;20350;-45
2022/07/08 02:49:47;;;;;;;17.20;4.68;;;13.80;81.00;;;;;;5052339;28;20036;-43
2022/07/08 02:52:14;;;;;;;15.15;2.28;;;13.70;81.00;;;;;;5069343;28;20097;-44
2022/07/08 02:54:40;;;;;;;9.32;2.40;;;13.70;81.00;;;;;;5070149;28;20038;-46
2022/07/08 02:57:06;;;;;;;7.60;1.70;;;13.70;80.90;;;;;;5052702;28;20441;-45
2022/07/08 02:59:34;;;;;;;11.00;2.05;;;13.70;81.00;;;;;;5070230;28;20461;-43
2022/07/08 03:02:00;;;;;;;8.98;2.45;;;13.70;80.80;;;;;;5070053;28;20036;-44
2022/07/08 03:04:27;;;;;;;10.85;1.85;;;13.70;81.00;;;;;;5069885;28;20357;-44
2022/07/08 03:06:53;;;;;;;14.85;2.55;;;13.60;80.70;;;;;;5070379;28;20404;-45
2022/07/08 03:09:19;;;;;;;8.57;2.17;;;13.60;80.70;;;;;;5052547;28;20032;-44
2022/07/08 03:11:44;;;;;;;6.80;1.67;;;13.60;80.60;;;;;;5052197;28;20033;-46
2022/07/08 03:14:10;;;;;;;10.80;2.15;;;13.60;80.80;;;;;;5069607;28;20024;-44
2022/07/08 03:16:36;;;;;;;11.70;2.53;;;13.60;80.90;;;;;;5069910;28;20462;-44
2022/07/08 03:19:04;;;;;;;6.78;1.88;;;13.60;81.20;;;;;;5052130;28;20354;-46
2022/07/08 03:21:29;;;;;;;10.38;1.98;;;13.70;81.50;;;;;;5069765;28;20036;-43
2022/07/08 03:23:55;;;;;;;14.77;2.95;;;13.70;81.70;;;;;;5069592;28;20082;-43
2022/07/08 03:26:21;;;;;;;14.88;3.38;;;13.70;81.90;;;;;;5069225;28;20527;-44
2022/07/08 03:28:46;;;;;;;12.32;3.10;;;13.70;82.20;;;;;;5068853;28;20043;-44
2022/07/08 03:31:12;;;;;;;10.32;2.83;;;13.70;82.30;;;;;;5069349;28;20054;-44
2022/07/08 03:33:38;;;;;;;10.15;2.40;;;13.80;82.10;;;;;;5069036;28;20050;-44
2022/07/08 03:36:06;;;;;;;11.18;2.83;;;13.80;82.00;;;;;;5052216;28;20115;-44
2022/07/08 03:38:34;;;;;;;6.88;1.75;;;13.70;81.80;;;;;;5068224;28;20032;-44
2022/07/08 03:43:46;;;;;;;10.73;2.80;;;13.80;82.00;;;;;;5068175;28;20070;-43
2022/07/08 03:46:11;;;;;;;13.88;2.45;;;13.90;82.20;;;;;;5068836;28;20068;-44
2022/07/08 03:48:42;;;;;;;8.93;2.78;;;13.90;82.20;;;;;;5068591;28;20067;-43
2022/07/08 03:51:08;;;;;;;12.73;2.47;;;13.90;82.30;;;;;;5068683;28;20386;-43
2022/07/08 03:53:34;;;;;;;9.43;2.70;;;13.90;82.50;;;;;;5067620;28;20021;-44
2022/07/08 03:55:59;;;;;;;17.05;2.67;;;13.90;82.50;;;;;;5050829;28;20642;-44
2022/07/08 03:58:25;;;;;;;7.45;2.33;;;13.90;82.70;;;;;;5068297;28;20024;-44
2022/07/08 04:00:51;;;;;;;12.68;2.97;;;13.80;82.90;;;;;;5050883;28;20029;-45
2022/07/08 04:03:17;;;;;;;9.75;2.30;;;13.80;83.00;;;;;;5067709;28;20028;-43
2022/07/08 04:05:43;;;;;;;12.70;2.70;;;13.80;83.20;;;;;;5050428;28;20501;-46
2022/07/08 04:08:09;;;;;;;6.50;1.73;;;13.80;82.90;;;;;;5068633;28;20473;-45
2022/07/08 04:10:36;;;;;;;9.25;2.30;;;13.80;82.90;;;;;;5050619;28;20029;-43
2022/07/08 04:13:05;;;;;;;11.18;2.10;;;13.80;83.00;;;;;;5067289;28;20119;-43
2022/07/08 04:15:30;;;;;;;12.48;2.95;;;13.80;83.20;;;;;;5050204;28;20028;-44
2022/07/08 04:17:56;;;;;;;12.95;2.67;;;13.80;83.40;;;;;;5050505;28;20027;-43
2022/07/08 04:20:22;;;;;;;8.80;2.20;;;13.90;83.50;;;;;;5068190;28;20036;-44
2022/07/08 04:22:47;;;;;;;10.15;2.50;;;13.90;83.40;;;;;;5068035;28;20446;-44
2022/07/08 04:25:13;;;;;;;8.93;2.13;;;13.90;83.60;;;;;;5050558;28;20089;-43
2022/07/08 04:27:39;;;;;;;10.32;2.72;;;13.90;83.80;;;;;;5068229;28;20111;-43
2022/07/08 04:30:05;;;;;;;15.98;3.17;;;13.90;83.80;;;;;;5050424;28;20094;-43
2022/07/08 04:32:30;;;;;;;10.15;3.22;;;13.90;83.90;;;;;;5067527;28;20082;-44
2022/07/08 04:34:59;;;;;;;9.15;2.05;;;13.90;83.80;;;;;;5049240;28;20028;-44
2022/07/08 04:37:28;;;;;;;11.18;2.55;;;13.90;83.70;;;;;;5068201;28;20021;-44
2022/07/08 04:39:54;;;;;;;9.07;2.47;;;14.00;83.50;;;;;;5065953;28;20035;-45
2022/07/08 04:42:20;;;;;;;13.88;3.05;;;14.00;83.30;;;;;;5067321;28;20684;-45
2022/07/08 04:44:46;;;;;;;11.90;2.05;;;14.10;83.10;;;;;;5067792;28;20488;-45
2022/07/08 04:47:14;;;;;;;10.18;2.10;;;14.10;83.00;;;;;;5049370;28;20029;-44
2022/07/08 04:49:44;;;;;;;10.85;3.38;;;14.10;83.00;;;;;;5050702;28;20532;-47
2022/07/08 04:52:13;;;;;;;10.98;2.88;;;14.10;83.20;;;;;;5068465;28;20341;-43
2022/07/08 04:54:39;;;;;;;13.00;2.90;;;14.10;83.30;;;;;;5035935;28;20058;-45
2022/07/08 04:57:05;;;;;;;14.57;2.90;;;14.10;83.30;;;;;;5051555;28;20020;-44
2022/07/08 04:59:31;;;;;;;10.48;2.88;;;14.20;82.90;;;;;;5034733;28;20459;-44
2022/07/08 05:01:56;;;;;;;12.45;3.08;;;14.40;82.80;;;;;;5067979;28;20067;-45
2022/07/08 05:04:22;;;;;;;6.68;2.15;;;14.40;82.40;;;;;;5071672;28;20028;-45
2022/07/08 05:06:50;;;;;;;9.60;3.00;;;14.50;82.00;;;;;;5071866;28;20040;-44
2022/07/08 05:09:18;;;;;;;13.13;3.17;;;14.60;81.80;;;;;;5071450;28;20024;-44
2022/07/08 05:11:44;;;;;;;12.73;2.85;;;14.80;81.60;;;;;;5071837;28;20029;-45
2022/07/08 05:14:13;;;;;;;10.38;2.38;;;14.90;81.50;;;;;;5071910;28;20021;-47
2022/07/08 05:16:40;;;;;;;9.80;2.83;;;14.90;81.50;;;;;;5053278;28;20024;-44
2022/07/08 05:19:06;;;;;;;10.75;3.08;;;15.00;81.10;;;;;;5068958;28;20033;-46
2022/07/08 05:21:31;;;;;;;12.65;4.15;;;15.00;80.90;;;;;;5068306;28;20047;-44
2022/07/08 05:23:59;;;;;;;9.55;3.13;;;15.10;80.70;;;;;;5053033;28;20453;-43
2022/07/08 05:26:27;;;;;;;15.35;3.13;;;15.10;80.60;;;;;;5070722;28;20032;-44
2022/07/08 05:28:53;;;;;;;12.48;3.05;;;15.20;80.90;;;;;;5070497;28;20047;-44
2022/07/08 05:31:19;;;;;;;13.02;2.72;;;15.30;80.90;;;;;;5069991;28;20025;-44
2022/07/08 05:33:44;;;;;;;7.80;2.55;;;15.40;81.10;;;;;;5053339;28;20028;-46
2022/07/08 05:36:10;;;;;;;13.45;3.72;;;15.50;81.00;;;;;;5070940;28;20445;-45
2022/07/08 05:38:38;;;;;;;11.38;3.13;;;15.70;80.60;;;;;;5071075;28;20039;-46
2022/07/08 05:41:04;;;;;;;14.27;3.15;;;15.80;80.40;;;;;;5070828;28;20025;-44
2022/07/08 05:43:29;;;;;;;14.65;3.03;;;15.80;80.70;;;;;;5070462;28;20465;-44
2022/07/08 05:45:57;;;;;;;10.40;2.25;;;15.90;80.60;;;;;;5070261;28;20024;-45
2022/07/08 05:48:28;;;;;;;8.27;2.33;;;15.90;80.80;;;;;;5070849;28;20063;-46
2022/07/08 05:50:56;;;;;;;14.60;3.45;;;15.90;81.00;;;;;;5070558;28;20025;-46
2022/07/08 05:53:24;;;;;;;6.90;1.90;;;16.00;81.10;;;;;;5070240;28;20037;-45
2022/07/08 05:55:55;;;;;;;9.85;2.25;;;16.00;81.20;;;;;;5052199;28;20024;-44
2022/07/08 05:58:20;;;;;;;9.10;2.30;;;16.00;80.90;;;;;;5068191;28;20031;-47
2022/07/08 06:00:46;;;;;;;15.02;3.30;;;16.00;81.00;;;;;;5049695;28;20033;-45
2022/07/08 06:03:11;;;;;;;8.82;2.17;;;15.90;81.30;;;;;;5069748;28;20039;-44
2022/07/08 06:05:38;;;;;;;10.15;2.17;;;15.90;81.90;;;;;;5052604;28;20037;-45
2022/07/08 06:08:06;;;;;;;11.88;2.65;;;15.90;82.10;;;;;;5069221;28;20021;-44
2022/07/08 06:10:34;;;;;;;14.68;3.35;;;15.90;82.20;;;;;;5067288;28;20029;-44
2022/07/08 06:13:01;;;;;;;7.78;2.58;;;15.90;82.20;;;;;;5070095;28;20042;-44
2022/07/08 06:15:29;;;;;;;17.65;4.30;;;15.90;82.30;;;;;;5052723;28;20453;-43
2022/07/08 06:17:56;;;;;;;12.10;3.15;;;15.90;82.50;;;;;;5070395;28;20103;-44
2022/07/08 06:20:27;;;;;;;9.65;3.05;;;15.90;82.80;;;;;;5067463;28;20043;-45
2022/07/08 06:22:53;;;;;;;9.93;2.83;;;15.90;83.00;;;;;;5069118;28;20032;-45
2022/07/08 06:25:18;;;;;;;14.38;2.88;;;15.90;83.20;;;;;;5052626;28;20039;-43
2022/07/08 06:27:44;;;;;;;12.50;3.10;;;15.90;83.00;;;;;;5069830;28;20042;-45
2022/07/08 06:30:10;;;;;;;14.70;3.30;;;15.90;83.20;;;;;;5052666;28;20104;-44
2022/07/08 06:32:38;;;;;;;14.85;2.47;;;15.90;83.00;;;;;;5070180;28;20112;-44
2022/07/08 06:35:04;;;;;;;15.52;3.55;;;15.90;82.40;;;;;;5070565;28;20574;-44
2022/07/08 06:37:30;;;;;;;7.82;2.40;;;15.90;82.70;;;;;;5070189;28;20598;-46
2022/07/08 06:39:55;;;;;;;10.48;2.45;;;15.90;82.90;;;;;;5052814;28;20058;-45
2022/07/08 06:42:21;;;;;;;14.07;3.67;;;15.90;82.80;;;;;;5052567;28;20052;-45
2022/07/08 06:44:47;;;;;;;10.70;2.40;;;16.00;82.80;;;;;;5052612;28;20075;-45
2022/07/08 06:47:15;;;;;;;14.25;2.97;;;16.00;83.00;;;;;;5069939;28;20513;-44
2022/07/08 06:49:43;;;;;;;8.27;2.08;;;16.00;83.00;;;;;;5052627;28;20465;-43
2022/07/08 06:52:08;;;;;;;9.75;2.90;;;16.10;83.40;;;;;;5069238;28;20052;-46
2022/07/08 06:54:37;;;;;;;11.75;2.72;;;16.10;83.40;;;;;;5070175;28;20055;-44
2022/07/08 06:57:05;;;;;;;8.38;2.67;;;16.10;83.60;;;;;;5069473;28;20016;-48
2022/07/08 06:59:31;;;;;;;19.05;4.35;;;16.10;83.80;;;;;;5069862;28;20028;-44
2022/07/08 07:01:56;;;;;;;9.13;3.20;;;16.10;84.00;;;;;;5070154;28;20078;-44
2022/07/08 07:04:22;;;;;;;9.65;3.67;;;16.00;84.10;;;;;;5052633;28;20040;-44
2022/07/08 07:06:48;;;;;;;10.65;3.53;;;15.90;84.50;;;;;;5069666;28;20028;-44
2022/07/08 07:09:14;;;;;;;14.57;2.83;;;16.00;84.70;;;;;;5061844;28;20032;-47
2022/07/08 07:11:40;;;;;;;8.00;2.60;;;16.00;84.50;;;;;;5070051;28;20078;-48
2022/07/08 07:14:06;;;;;;;11.40;3.08;;;16.10;84.40;;;;;;5070186;28;20026;-44
2022/07/08 07:16:32;;;;;;;13.50;3.00;;;16.10;84.20;;;;;;5069717;28;20024;-43
2022/07/08 07:19:00;;;;;;;12.13;2.80;;;16.20;84.50;;;;;;5069330;28;20537;-44
2022/07/08 07:21:26;;;;;;;10.65;3.08;;;16.20;84.60;;;;;;5069564;28;20089;-44
2022/07/08 07:23:51;;;;;;;9.27;2.10;;;16.30;84.70;;;;;;5051044;28;20663;-45
2022/07/08 07:26:17;;;;;;;12.25;3.85;;;16.40;85.20;;;;;;5060996;28;20033;-45
2022/07/08 07:28:43;;;;;;;7.97;2.15;;;16.50;84.50;;;;;;5068405;28;20047;-43
2022/07/08 07:31:11;;;;;;;18.17;2.75;;;16.60;84.00;;;;;;5068591;28;20044;-46
2022/07/08 07:33:36;;;;;;;11.73;2.50;;;16.60;83.80;;;;;;5057110;28;20095;-46
2022/07/08 07:36:03;;;;;;;8.70;2.60;;;16.70;83.40;;;;;;5068773;28;20100;-46
2022/07/08 07:38:28;;;;;;;7.10;2.70;;;16.70;83.50;;;;;;5051775;28;20028;-46
2022/07/08 07:40:54;;;;;;;10.77;2.92;;;16.80;83.30;;;;;;5069063;28;20036;-47
2022/07/08 07:43:22;;;;;;;14.75;2.78;;;16.80;83.00;;;;;;5050573;28;20440;-47
2022/07/08 07:45:50;;;;;;;12.55;2.55;;;16.80;82.70;;;;;;5050621;28;20033;-45
2022/07/08 07:48:16;;;;;;;10.80;2.80;;;16.90;82.60;;;;;;5051595;28;20492;-45
2022/07/08 07:50:42;;;;;;;11.80;2.65;;;16.90;82.50;;;;;;5068908;28;20035;-43
2022/07/08 07:53:07;;;;;;;17.55;3.22;;;16.90;82.50;;;;;;5066161;28;20094;-46
2022/07/08 07:55:33;;;;;;;11.98;3.97;;;16.90;82.60;;;;;;5067369;28;20164;-46
2022/07/08 07:57:59;;;;;;;11.10;2.88;;;16.70;82.60;;;;;;5050159;28;20112;-45
2022/07/08 08:00:27;;;;;;;11.15;2.55;;;16.60;83.10;;;;;;5067418;28;20025;-45
2022/07/08 08:02:54;;;;;;;10.25;3.65;;;16.70;83.50;;;;;;5050601;28;20032;-47
2022/07/08 08:05:20;;;;;;;13.68;3.40;;;16.70;83.60;;;;;;5067997;28;20044;-46
2022/07/08 08:07:48;;;;;;;12.80;3.97;;;16.70;83.70;;;;;;5050602;28;20032;-46
2022/07/08 08:10:14;;;;;;;13.68;3.40;;;16.70;84.00;;;;;;5066606;28;20024;-45
2022/07/08 08:12:45;;;;;;;10.73;2.78;;;16.90;83.90;;;;;;5068717;28;20016;-45
2022/07/08 08:15:11;;;;;;;7.70;2.50;;;16.90;83.80;;;;;;5066338;28;20030;-45
2022/07/08 08:17:43;;;;;;;7.60;2.83;;;16.80;84.20;;;;;;5067986;28;20090;-44
2022/07/08 08:20:11;;;;;;;12.40;3.15;;;16.80;84.30;;;;;;5067005;28;20028;-44
2022/07/08 08:22:37;;;;;;;11.98;3.08;;;16.70;84.80;;;;;;5068039;28;20024;-47
2022/07/08 08:25:03;;;;;;;9.68;3.75;;;16.70;85.40;;;;;;5067877;28;20044;-45
2022/07/08 08:27:31;;;;;;;7.88;2.05;;;16.70;85.40;;;;;;5060088;28;20046;-44
2022/07/08 08:29:56;;;;;;;10.70;2.13;;;16.70;85.30;;;;;;5067971;28;20029;-44
2022/07/08 08:32:22;;;;;;;6.72;2.20;;;16.70;85.60;;;;;;5053019;28;20086;-44
2022/07/08 08:34:48;;;;;;;7.63;2.38;;;16.80;85.10;;;;;;5071515;28;20024;-44
2022/07/08 08:37:14;;;;;;;8.52;1.88;;;16.80;85.30;;;;;;5054230;28;20029;-44
2022/07/08 08:39:40;;;;;;;10.75;2.25;;;16.90;85.10;;;;;;5071596;28;20028;-44
2022/07/08 08:42:07;;;;;;;10.23;1.90;;;16.90;84.90;;;;;;5071662;28;20107;-44
2022/07/08 08:44:35;;;;;;;8.55;2.05;;;16.80;85.40;;;;;;5071584;28;20406;-44
2022/07/08 08:47:03;;;;;;;7.45;2.53;;;16.60;86.20;;;;;;5072584;28;20028;-45
2022/07/08 08:49:34;;;;;;;12.65;2.72;;;16.50;86.50;;;;;;5071844;28;20043;-45
2022/07/08 08:52:05;;;;;;;7.25;2.08;;;16.40;86.90;;;;;;5052407;28;20024;-43
2022/07/08 08:54:34;;;;;;;9.60;2.47;;;16.40;87.30;;;;;;5068103;28;20020;-44
2022/07/08 08:57:05;;;;;;;10.77;2.55;;;16.50;87.40;;;;;;5088334;28;20051;-46
2022/07/08 08:59:33;;;;;;;8.43;2.55;;;16.70;87.20;;;;;;5071630;28;20029;-44
2022/07/08 09:02:04;;;;;;;9.80;2.40;;;16.90;86.40;;;;;;5072144;28;20096;-44
2022/07/08 09:04:31;;;;;;;8.07;2.80;;;16.90;85.90;;;;;;5072327;28;20090;-45
2022/07/08 09:06:59;;;;;;;7.38;2.25;;;17.00;85.80;;;;;;5053460;28;20024;-43
2022/07/08 09:09:25;;;;;;;8.48;2.50;;;17.00;85.50;;;;;;5071767;28;20057;-46
2022/07/08 09:11:51;;;;;;;9.68;2.58;;;16.90;85.40;;;;;;5071263;28;20057;-46
2022/07/08 09:14:18;;;;;;;8.75;3.15;;;16.80;85.80;;;;;;5037163;28;20112;-45
2022/07/08 09:17:09;;;;;;;11.15;3.67;;;16.90;86.00;;;;;;5071413;28;20074;-45
2022/07/08 09:19:35;;;;;;;11.65;3.95;;;16.90;85.70;;;;;;5055115;28;20036;-45
2022/07/08 09:22:01;;;;;;;8.48;2.75;;;16.90;86.00;;;;;;5071624;28;20028;-45
2022/07/08 09:24:29;;;;;;;10.50;3.67;;;16.90;85.60;;;;;;5054014;28;20754;-45
2022/07/08 09:26:57;;;;;;;9.60;2.67;;;16.90;85.00;;;;;;5071131;28;20107;-44
2022/07/08 09:29:23;;;;;;;8.30;2.28;;;16.90;85.30;;;;;;5071190;28;20054;-45
2022/07/08 09:31:49;;;;;;;12.20;2.88;;;16.90;85.40;;;;;;5070530;28;20029;-43
2022/07/08 09:34:16;;;;;;;9.27;2.80;;;17.00;85.40;;;;;;5071568;28;20032;-45
2022/07/08 09:36:49;;;;;;;16.60;3.67;;;17.00;85.50;;;;;;5071156;28;20028;-45
2022/07/08 09:39:27;;;;;;;11.82;3.25;;;17.00;85.40;;;;;;5070976;28;20104;-46
2022/07/08 09:41:53;;;;;;;9.23;3.08;;;17.10;85.70;;;;;;5070200;28;20063;-44
2022/07/08 09:44:22;;;;;;;9.93;3.50;;;17.20;85.20;;;;;;5085771;28;20518;-46
2022/07/08 09:46:49;;;;;;;15.40;3.67;;;17.40;84.90;;;;;;5069475;28;20047;-44
2022/07/08 09:49:33;;;;;;;12.85;3.63;;;17.40;85.00;;;;;;5070041;28;20464;-44
2022/07/08 09:52:02;;;;;;;11.90;3.70;;;17.50;84.50;;;;;;5070114;28;20061;-43
2022/07/08 09:54:28;;;;;;;8.13;3.20;;;17.80;84.30;;;;;;5069699;28;20020;-45
2022/07/08 09:57:01;;;;;;;13.05;3.33;;;17.80;83.80;;;;;;5069388;28;20023;-46
2022/07/08 09:59:30;;;;;;;10.82;3.65;;;17.80;83.80;;;;;;5069241;28;20023;-44
2022/07/08 10:01:57;;;;;;;13.43;2.90;;;17.80;83.70;;;;;;5069928;28;20033;-45
2022/07/08 10:04:26;;;;;;;11.63;2.88;;;17.80;83.90;;;;;;5052209;28;20465;-45
2022/07/08 10:06:53;;;;;;;10.67;2.60;;;17.70;84.30;;;;;;5069885;28;20365;-44
2022/07/08 10:09:22;;;;;;;12.68;3.17;;;17.80;83.20;;;;;;5070359;28;20449;-44
2022/07/08 10:11:49;;;;;;;11.32;3.78;;;17.80;83.10;;;;;;5070434;28;20404;-44
2022/07/08 10:14:18;;;;;;;9.55;2.58;;;17.80;82.70;;;;;;5070494;28;20036;-44
2022/07/08 10:16:46;;;;;;;12.35;3.15;;;17.70;83.00;;;;;;5070152;28;20035;-45
2022/07/08 10:19:16;;;;;;;10.75;3.33;;;17.70;83.00;;;;;;5052585;28;20039;-44
2022/07/08 10:21:46;;;;;;;13.18;3.10;;;17.70;83.60;;;;;;5069981;28;20020;-47
2022/07/08 10:24:18;;;;;;;13.43;3.95;;;17.60;83.70;;;;;;5052858;28;20020;-44
2022/07/08 10:26:44;;;;;;;14.68;4.32;;;17.50;83.80;;;;;;5070251;28;20043;-45
2022/07/08 10:29:13;;;;;;;20.88;5.13;;;17.50;84.00;;;;;;5069541;28;20025;-44
2022/07/08 10:31:47;;;;;;;21.02;4.65;;;17.40;84.30;;;;;;5064651;28;20029;-45
2022/07/08 10:34:21;;;;;;;14.50;3.92;;;17.50;84.30;;;;;;5064300;28;20035;-44
2022/07/08 10:36:53;;;;;;;11.05;4.38;;;17.60;84.20;;;;;;5064648;28;20017;-46
2022/07/08 10:39:26;;;;;;;11.20;3.50;;;17.60;84.00;;;;;;5069767;28;20041;-44
2022/07/08 10:42:03;;;;;;;13.82;3.95;;;17.60;83.90;;;;;;5049257;28;20064;-43
2022/07/08 10:44:44;;;;;;;11.38;3.67;;;17.50;84.00;;;;;;5052024;28;20075;-47
2022/07/08 10:47:28;;;;;;;10.63;3.53;;;17.60;84.20;;;;;;5070190;28;20033;-45
2022/07/08 10:50:04;;;;;;;10.68;3.30;;;17.60;84.20;;;;;;5066849;28;20334;-47
2022/07/08 10:52:39;;;;;;;12.38;3.97;;;17.60;84.30;;;;;;5069805;28;20414;-44
2022/07/08 10:55:16;;;;;;;11.65;3.90;;;17.70;84.20;;;;;;5069222;28;20020;-45
2022/07/08 10:57:55;;;;;;;15.77;3.83;;;17.70;84.30;;;;;;5043203;28;20033;-44
2022/07/08 11:00:22;;;;;;;10.10;3.92;;;17.80;84.60;;;;;;5078747;28;20051;-44
2022/07/08 11:02:51;;;;;;;12.85;4.25;;;17.90;83.60;;;;;;5051641;28;20028;-46
2022/07/08 11:05:40;;;;;;;11.00;3.55;;;18.10;83.40;;;;;;5035686;28;20123;-45
2022/07/08 11:08:21;;;;;;;12.23;3.90;;;18.20;83.00;;;;;;5069609;28;20085;-43
2022/07/08 11:10:48;;;;;;;7.75;3.22;;;18.20;82.80;;;;;;5069441;28;20043;-45
2022/07/08 11:13:13;;;;;;;8.05;3.40;;;18.30;83.00;;;;;;5051219;28;20453;-45
2022/07/08 11:15:39;;;;;;;13.25;3.80;;;18.10;83.10;;;;;;5050439;28;20043;-45
2022/07/08 11:18:05;;;;;;;12.65;3.85;;;18.00;83.50;;;;;;5034345;28;20025;-45
2022/07/08 11:20:31;;;;;;;12.52;3.67;;;17.90;83.50;;;;;;5068629;28;20090;-44
2022/07/08 11:22:57;;;;;;;9.90;3.83;;;17.90;84.00;;;;;;5051285;28;20028;-45
2022/07/08 11:25:24;;;;;;;11.90;3.47;;;18.00;84.20;;;;;;5050045;28;20097;-44
2022/07/08 11:27:50;;;;;;;12.13;3.67;;;18.00;84.10;;;;;;5068736;28;20036;-46
2022/07/08 11:30:17;;;;;;;13.00;3.55;;;18.10;84.00;;;;;;5068533;28;20034;-45
2022/07/08 11:32:47;;;;;;;12.25;3.33;;;18.20;83.50;;;;;;5068702;28;20029;-46
2022/07/08 11:35:13;;;;;;;10.35;3.25;;;18.30;83.60;;;;;;5050619;28;20385;-44
2022/07/08 11:37:43;;;;;;;12.40;4.15;;;18.30;83.40;;;;;;5068748;28;20017;-45
2022/07/08 11:40:10;;;;;;;12.07;3.67;;;18.40;83.30;;;;;;5068700;28;20028;-44
2022/07/08 11:42:37;;;;;;;7.72;2.83;;;18.40;82.70;;;;;;5067280;28;20055;-46
2022/07/08 11:45:06;;;;;;;18.02;4.88;;;18.50;83.20;;;;;;5067895;28;20036;-44
2022/07/08 11:47:32;;;;;;;11.45;3.42;;;18.50;82.60;;;;;;5077869;28;20041;-45
2022/07/08 11:49:57;;;;;;;9.18;3.08;;;18.60;83.20;;;;;;5068572;28;20090;-45
2022/07/08 11:52:27;;;;;;;13.50;3.50;;;18.60;82.50;;;;;;5068871;28;20782;-45
2022/07/08 11:54:53;;;;;;;;;;;18.50;82.90;;;;;;5069295;28;20056;-45
2022/07/08 11:57:22;;;;;;;15.85;3.63;;;18.60;83.20;;;;;;5068537;28;19922;-46
2022/07/08 11:59:49;;;;;;;12.68;3.92;;;18.60;82.50;;;;;;5051123;28;20042;-44
2022/07/08 12:02:20;;;;;;;16.77;3.75;;;18.50;82.10;;;;;;5055607;28;20028;-45
2022/07/08 12:04:50;;;;;;;11.23;3.40;;;18.50;82.60;;;;;;5073795;28;20042;-45
2022/07/08 12:07:25;;;;;;;;;;;18.50;82.70;;;;;;5082892;28;20039;-43
2022/07/08 12:09:59;;;;;;;13.57;3.53;;;18.60;82.70;;;;;;5068175;28;19917;-44
2022/07/08 12:12:27;;;;;;;18.58;4.47;;;18.70;82.40;;;;;;5068786;28;20021;-44
2022/07/08 12:14:54;;;;;;;13.55;3.15;;;18.90;81.80;;;;;;5068455;28;20450;-44
2022/07/08 12:17:24;;;;;;;12.45;3.95;;;19.10;81.10;;;;;;5060577;28;20058;-49
2022/07/08 12:19:52;;;;;;;7.32;3.42;;;19.30;80.60;;;;;;5064297;28;20079;-44
2022/07/08 12:22:49;;;;;;;10.00;3.13;;;19.40;80.70;;;;;;5065681;28;20097;-49
2022/07/08 12:25:18;;;;;;;12.68;3.05;;;19.60;79.10;;;;;;5065654;28;20024;-45
2022/07/08 12:27:55;;;;;;;11.70;3.38;;;19.60;78.90;;;;;;5067904;28;20602;-44
2022/07/08 12:30:31;;;;;;;15.32;3.55;;;19.40;79.10;;;;;;5067580;28;20036;-47
2022/07/08 12:33:04;;;;;;;11.70;2.58;;;19.40;79.50;;;;;;5067919;28;20044;-46
2022/07/08 12:35:33;;;;;;;10.80;3.47;;;19.40;79.80;;;;;;5065771;28;20032;-44
2022/07/08 12:38:07;;;;;;;11.73;4.03;;;19.30;79.50;;;;;;5050374;28;20032;-46
2022/07/08 12:40:38;;;;;;;8.43;2.97;;;19.20;80.10;;;;;;5066269;28;20121;-47
2022/07/08 12:43:05;;;;;;;10.73;2.88;;;19.10;80.40;;;;;;5067263;28;20118;-45
2022/07/08 12:45:31;;;;;;;12.50;3.10;;;19.00;80.80;;;;;;5033903;28;20040;-45
2022/07/08 12:47:59;;;;;;;9.52;3.10;;;18.90;81.20;;;;;;5068007;28;20115;-45